Time;durP1;ratioP1;P1;durP2;ratioP2;P2;SDS_P1;SDS_P2;PMS_P1;PMS_P2;Temp;Humidity;BMP_temperature;BMP_pressure;BME280_temperature;BME280_humidity;BME280_pressure;Samples;Min_cycle;Max_cycle;Signal;HPM_P1;HPM_P2
2022/08/24 00:02:08;;;;;;;1.63;0.90;;;;;;;;;;21053581;28;20626;-74
2022/08/24 00:12:10;;;;;;;1.70;0.88;;;;;;;;;;20984636;28;20225;-74
2022/08/24 00:22:12;;;;;;;2.50;1.05;;;;;;;;;;20984644;28;20201;-74
2022/08/24 00:32:13;;;;;;;2.20;0.77;;;;;;;;;;20978903;28;20209;-74
2022/08/24 00:42:15;;;;;;;1.38;1.00;;;;;;;;;;21056776;28;20242;-74
2022/08/24 00:52:27;;;;;;;1.70;1.10;;;;;;;;;;21056504;28;20219;-74
2022/08/24 01:02:33;;;;;;;2.00;1.13;;;25.20;84.60;;;;;;21038715;28;20215;-74
2022/08/24 01:12:37;;;;;;;3.45;1.17;;;;;;;;;;21070889;28;20267;-74
2022/08/24 01:22:54;;;;;;;2.15;0.95;;;;;;;;;;21040206;28;20281;-74
2022/08/24 01:32:58;;;;;;;1.60;1.08;;;24.90;87.90;;;;;;20907672;28;20859;-74
2022/08/24 01:43:00;;;;;;;1.25;0.77;;;;;;;;;;20912415;28;20217;-74
2022/08/24 01:53:04;;;;;;;1.45;0.80;;;24.40;81.50;;;;;;20973738;28;20274;-74
2022/08/24 02:03:07;;;;;;;1.90;1.10;;;;;;;;;;20972531;28;20211;-73
2022/08/24 02:13:09;;;;;;;1.85;1.08;;;23.20;85.80;;;;;;20987722;28;20219;-73
2022/08/24 02:23:10;;;;;;;1.85;0.80;;;;;;;;;;20988788;28;20212;-74
2022/08/24 02:33:12;;;;;;;1.60;1.20;;;;;;;;;;20969326;28;20210;-73
2022/08/24 02:43:15;;;;;;;1.95;1.15;;;;;;;;;;20980591;28;20266;-74
2022/08/24 02:53:18;;;;;;;1.63;0.80;;;;;;;;;;20944556;28;20576;-74
2022/08/24 03:03:20;;;;;;;2.17;0.98;;;;;;;;;;20926435;28;20245;-74
2022/08/24 03:13:22;;;;;;;4.15;1.02;;;;;;;;;;20903234;28;20226;-73
2022/08/24 03:23:26;;;;;;;1.52;0.80;;;;;;;;;;20957040;28;20226;-73
2022/08/24 03:33:29;;;;;;;2.35;1.30;;;;;;;;;;20985690;28;20214;-73
2022/08/24 03:43:47;;;;;;;1.52;0.98;;;;;;;;;;20997332;28;20243;-73
2022/08/24 03:53:56;;;;;;;2.13;1.00;;;23.30;93.30;;;;;;21032457;28;20251;-73
2022/08/24 04:04:00;;;;;;;1.45;1.10;;;;;;;;;;20980400;28;20248;-73
2022/08/24 04:14:07;;;;;;;6.22;1.05;;;;;;;;;;21067486;28;20220;-73
2022/08/24 04:24:10;;;;;;;3.10;1.10;;;;;;;;;;21066942;28;20203;-73
2022/08/24 04:34:13;;;;;;;2.40;0.80;;;23.20;92.60;;;;;;21104634;22;20228;-71
2022/08/24 04:44:17;;;;;;;14.70;2.63;;;;;;;;;;21103443;28;20212;-71
2022/08/24 04:54:20;;;;;;;2.83;1.30;;;;;;;;;;21112325;28;20292;-69
2022/08/24 05:04:31;;;;;;;2.53;1.25;;;;;;;;;;21081014;28;20250;-70
2022/08/24 05:14:34;;;;;;;2.10;1.27;;;;;;;;;;21043845;28;20217;-69
2022/08/24 05:24:36;;;;;;;2.35;1.20;;;;;;;;;;21082178;28;20278;-70
2022/08/24 05:34:38;;;;;;;3.45;1.30;;;;;;;;;;21026166;28;20284;-71
2022/08/24 05:44:40;;;;;;;4.45;1.73;;;;;;;;;;21033778;28;20211;-71
2022/08/24 05:54:43;;;;;;;6.18;1.73;;;;;;;;;;21106552;28;20225;-68
2022/08/24 06:04:46;;;;;;;4.97;1.25;;;;;;;;;;21066932;28;20226;-70
2022/08/24 06:14:48;;;;;;;1.35;0.82;;;;;;;;;;21074351;28;20227;-70
2022/08/24 06:35:16;;;;;;;1.63;0.75;;;;;;;;;;21075348;28;20222;-69
2022/08/24 06:45:18;;;;;;;3.42;0.85;;;;;;;;;;21095213;28;20690;-70
2022/08/24 06:55:20;;;;;;;5.45;1.08;;;;;;;;;;21062108;28;20256;-70
2022/08/24 07:05:22;;;;;;;1.85;0.70;;;;;;;;;;21124026;28;20250;-70
2022/08/24 07:15:43;;;;;;;1.50;0.85;;;;;;;;;;21122567;28;20209;-72
2022/08/24 07:25:48;;;;;;;2.00;0.60;;;24.30;90.30;;;;;;21140745;28;20281;-70
2022/08/24 07:35:50;;;;;;;3.03;0.82;;;;;;;;;;21101286;28;20216;-71
2022/08/24 07:45:52;;;;;;;0.80;0.50;;;;;;;;;;21098500;28;20206;-71
2022/08/24 07:55:55;;;;;;;2.08;0.70;;;;;;;;;;21091127;28;20255;-70
2022/08/24 08:06:00;;;;;;;2.22;0.70;;;;;;;;;;21068266;28;20277;-70
2022/08/24 08:16:03;;;;;;;2.65;0.90;;;;;;;;;;21103393;28;20226;-71
2022/08/24 08:26:06;;;;;;;1.25;0.75;;;;;;;;;;21101822;28;20217;-71
2022/08/24 08:36:28;;;;;;;1.45;0.60;;;;;;;;;;21107687;28;20233;-71
2022/08/24 08:47:08;;;;;;;1.52;0.80;;;25.50;85.50;;;;;;21101865;28;20762;-71
2022/08/24 08:57:52;;;;;;;2.05;0.80;;;26.00;85.20;;;;;;21065066;28;20225;-70
2022/08/24 09:07:58;;;;;;;2.00;0.75;;;25.80;72.30;;;;;;21101019;28;20260;-70
2022/08/24 09:18:05;;;;;;;1.30;0.70;;;26.00;76.30;;;;;;21101149;28;20283;-71
2022/08/24 09:28:13;;;;;;;1.00;0.70;;;;;;;;;;21134069;28;20208;-70
2022/08/24 09:38:45;;;;;;;1.05;0.75;;;26.80;75.40;;;;;;21130212;28;20223;-71
2022/08/24 09:48:57;;;;;;;2.42;1.02;;;;;;;;;;21131777;28;20269;-71
2022/08/24 09:59:39;;;;;;;1.30;0.80;;;27.10;82.90;;;;;;21130975;28;20397;-71
2022/08/24 10:09:53;;;;;;;2.13;0.82;;;27.30;82.60;;;;;;21130279;28;20205;-71
2022/08/24 10:20:18;;;;;;;1.85;0.90;;;27.70;73.40;;;;;;21129707;28;20206;-71
2022/08/24 10:30:46;;;;;;;3.97;0.90;;;28.00;72.40;;;;;;21092951;22;20230;-74
2022/08/24 10:41:12;;;;;;;2.10;1.10;;;28.00;71.90;;;;;;21076902;28;20215;-73
2022/08/24 10:51:14;;;;;;;2.75;0.95;;;;;;;;;;21074923;28;20203;-74
2022/08/24 11:01:15;;;;;;;1.50;0.68;;;;;;;;;;21074901;28;20674;-74
2022/08/24 11:11:31;;;;;;;2.90;0.82;;;28.80;78.70;;;;;;21072108;28;20567;-73
2022/08/24 11:21:33;;;;;;;2.08;0.70;;;;;;;;;;21071849;28;20751;-74
2022/08/24 11:31:38;;;;;;;1.30;0.55;;;;;;;;;;21071087;28;20754;-74
2022/08/24 11:42:05;;;;;;;1.50;0.90;;;29.70;73.40;;;;;;21070674;28;20212;-74
2022/08/24 11:52:10;;;;;;;1.70;0.93;;;29.70;70.80;;;;;;21070393;28;20211;-74
2022/08/24 12:02:30;;;;;;;1.05;0.80;;;30.10;63.70;;;;;;21068904;28;20207;-75
2022/08/24 12:12:37;;;;;;;0.90;0.50;;;;;;;;;;21069488;28;20215;-75
2022/08/24 12:22:40;;;;;;;1.20;0.77;;;30.40;77.90;;;;;;21052137;28;20266;-75
2022/08/24 12:32:53;;;;;;;1.63;0.80;;;;;;;;;;21051022;28;20221;-75
2022/08/24 12:43:05;;;;;;;1.77;0.80;;;30.40;74.80;;;;;;21067039;28;20266;-75
2022/08/24 12:53:09;;;;;;;1.42;0.70;;;;;;;;;;21067508;28;20219;-75
2022/08/24 13:03:37;;;;;;;2.45;0.70;;;31.00;69.40;;;;;;21066479;28;20201;-75
2022/08/24 13:14:11;;;;;;;2.40;0.77;;;31.40;68.60;;;;;;21081156;28;20764;-75
2022/08/24 13:24:28;;;;;;;0.55;0.47;;;;;;;;;;21082489;28;20676;-75
2022/08/24 13:34:37;;;;;;;1.60;0.60;;;;;;;;;;21064234;28;20220;-75
2022/08/24 13:44:57;;;;;;;1.52;0.60;;;;;;;;;;21081956;28;20205;-75
2022/08/24 13:54:58;;;;;;;0.50;0.50;;;;;;;;;;21080687;28;20601;-75
2022/08/24 14:05:03;;;;;;;0.93;0.65;;;;;;;;;;21077329;28;20262;-75
2022/08/24 14:15:32;;;;;;;0.80;0.50;;;31.30;58.60;;;;;;21079852;28;20212;-76
2022/08/24 14:25:35;;;;;;;0.70;0.40;;;31.40;69.10;;;;;;21059798;28;20227;-76
2022/08/24 14:35:37;;;;;;;0.88;0.60;;;;;;;;;;21075514;28;20216;-76
2022/08/24 14:46:11;;;;;;;1.52;0.60;;;31.70;73.20;;;;;;21076586;28;20201;-76
2022/08/24 14:56:31;;;;;;;0.85;0.50;;;31.80;56.40;;;;;;21070970;28;20250;-75
2022/08/24 15:06:39;;;;;;;0.70;0.40;;;;;;;;;;21075031;28;20201;-74
2022/08/24 15:16:51;;;;;;;1.23;0.60;;;31.70;68.90;;;;;;21074405;28;20200;-75
2022/08/24 15:26:55;;;;;;;0.70;0.52;;;;;;;;;;21072884;28;20185;-75
2022/08/24 15:36:59;;;;;;;0.82;0.50;;;32.10;73.30;;;;;;21053783;28;20213;-75
2022/08/24 15:47:03;;;;;;;0.70;0.50;;;;;;;;;;21070291;28;20197;-75
2022/08/24 15:57:08;;;;;;;2.67;0.57;;;;;;;;;;21070426;28;20208;-76
2022/08/24 16:07:30;;;;;;;0.93;0.50;;;32.10;68.20;;;;;;21068163;28;20205;-76
2022/08/24 16:17:32;;;;;;;2.15;0.40;;;;;;;;;;21070125;28;20771;-76
2022/08/24 16:27:52;;;;;;;0.80;0.43;;;;;;;;;;21081548;22;20233;-75
2022/08/24 16:37:54;;;;;;;1.00;0.68;;;;;;;;;;21068378;28;20220;-75
2022/08/24 16:47:56;;;;;;;0.75;0.50;;;;;;;;;;21062344;28;20658;-74
2022/08/24 16:58:00;;;;;;;3.25;0.77;;;;;;;;;;21102803;28;20236;-74
2022/08/24 17:08:01;;;;;;;0.70;0.50;;;;;;;;;;21135671;28;20262;-70
2022/08/24 17:18:05;;;;;;;1.05;0.65;;;;;;;;;;21060362;28;20266;-75
2022/08/24 17:28:09;;;;;;;0.93;0.50;;;;;;;;;;21038522;28;20233;-75
2022/08/24 17:38:11;;;;;;;1.40;0.82;;;;;;;;;;20982560;28;20263;-74
2022/08/24 17:48:19;;;;;;;2.17;0.50;;;;;;;;;;21003298;28;20209;-74
2022/08/24 17:58:20;;;;;;;2.25;0.68;;;;;;;;;;21041046;28;20695;-75
2022/08/24 18:08:22;;;;;;;0.85;0.32;;;;;;;;;;21077479;28;20675;-76
2022/08/24 18:18:24;;;;;;;0.68;0.40;;;;;;;;;;21078764;28;20239;-76
2022/08/24 18:28:26;;;;;;;0.77;0.45;;;;;;;;;;21119463;28;20277;-76
2022/08/24 18:38:27;;;;;;;4.40;0.75;;;;;;;;;;21135106;28;20212;-76
2022/08/24 18:48:29;;;;;;;0.70;0.40;;;;;;;;;;21112290;28;20212;-76
2022/08/24 18:58:31;;;;;;;0.90;0.40;;;;;;;;;;21055822;28;20216;-76
2022/08/24 19:08:33;;;;;;;1.00;0.43;;;;;;;;;;21057038;28;20215;-75
2022/08/24 19:18:35;;;;;;;1.27;0.50;;;;;;;;;;21054689;28;20695;-75
2022/08/24 19:28:36;;;;;;;1.17;0.45;;;;;;;;;;21065226;28;20584;-76
2022/08/24 19:38:38;;;;;;;2.88;0.75;;;;;;;;;;21046372;28;20372;-77
2022/08/24 19:48:40;;;;;;;0.90;0.45;;;;;;;;;;21062494;28;20205;-78
2022/08/24 19:58:57;;;;;;;2.17;0.57;;;;;;;;;;21057395;28;20285;-76
2022/08/24 20:08:59;;;;;;;2.58;0.60;;;;;;;;;;21056716;28;20204;-74
2022/08/24 20:19:00;;;;;;;1.30;0.50;;;;;;;;;;21057416;28;20223;-72
2022/08/24 20:29:03;;;;;;;2.00;0.50;;;;;;;;;;21042408;28;20230;-76
2022/08/24 20:39:06;;;;;;;1.10;0.60;;;;;;;;;;21058667;28;20228;-76
2022/08/24 20:49:09;;;;;;;3.78;0.80;;;;;;;;;;21103341;28;20216;-75
2022/08/24 20:59:13;;;;;;;1.20;0.73;;;;;;;;;;21134032;28;20661;-74
2022/08/24 21:09:14;;;;;;;2.75;0.70;;;;;;;;;;21124919;28;20267;-76
2022/08/24 21:19:16;;;;;;;1.90;1.05;;;;;;;;;;21145038;28;20215;-74
2022/08/24 21:29:18;;;;;;;3.58;0.85;;;;;;;;;;21152013;28;20628;-74
2022/08/24 21:39:20;;;;;;;1.55;0.70;;;;;;;;;;21142400;28;20750;-75
2022/08/24 21:49:22;;;;;;;2.60;0.90;;;;;;;;;;21142283;28;20274;-74
2022/08/24 21:59:23;;;;;;;4.65;0.88;;;;;;;;;;21066524;28;20756;-75
2022/08/24 22:09:26;;;;;;;2.15;0.60;;;27.20;79.40;;;;;;21076349;28;20265;-75
2022/08/24 22:19:28;;;;;;;5.88;1.45;;;;;;;;;;21077769;28;20308;-75
2022/08/24 22:29:30;;;;;;;1.48;0.70;;;;;;;;;;21081813;22;20241;-72
2022/08/24 22:39:32;;;;;;;1.35;0.65;;;;;;;;;;20810728;28;20722;-72
2022/08/24 22:49:38;;;;;;;1.52;0.70;;;;;;;;;;20818914;28;20248;-72
2022/08/24 22:59:41;;;;;;;3.33;0.70;;;;;;;;;;20814193;28;20566;-72
2022/08/24 23:09:43;;;;;;;2.15;0.60;;;;;;;;;;20821968;28;20266;-72
2022/08/24 23:20:00;;;;;;;2.72;0.73;;;;;;;;;;20804758;28;20268;-72
2022/08/24 23:30:02;;;;;;;0.75;0.45;;;;;;;;;;20813677;28;20254;-72
2022/08/24 23:40:04;;;;;;;1.20;0.70;;;26.20;82.20;;;;;;20814308;28;20257;-72
2022/08/24 23:50:06;;;;;;;1.92;0.70;;;26.10;79.60;;;;;;20821996;28;20205;-72
